National Weather Service Raw Text Product

Displaying AFOS PIL: TAFMCW Received: 2018-01-03 14:43 UTC


940 
FTUS43 KDMX 031443 AAA
TAFMCW
TAF AMD
KMCW 031443Z 0315/0412 32015G23KT 5SM HZ SCT006
     FM032300 32010G14KT P6SM SKC
     FM040600 34006KT P6SM SKC=